LIRNLIME

Guest
Details From LIRN - Naples Capodichino
To LIME - Bergamo Orio Al Serio
Flight Number -
Tags Generated
Created
Modified
Stats Distance 351 nm / 649 km
Max Altitude 0 ft / 0 m
Waypoints 3
Social Downloads 2
Likes 0
Share VATSIM

Download

Looking for another format? Having issues loading an existing format? Contact us
Advertisement - Login to hide

Notes

Generated

Route

LIRN KAMPA LIME

ID Type Via Altitude Latitude Longitude Leg Dist Tot Dist Heading (true) Name
O LIRN APT - 0 ft / 0 m 40.87979˚ 14.27754˚ - 0 nm - -
KAMPA FIX - 0 ft / 0 m 45.39000˚ 10.00000˚ 329 nm 329 nm 327° / 324° -
O LIME APT - 0 ft / 0 m 45.67113˚ 9.68904˚ 21 nm 350 nm 322° / 322° -

Altitude Profile

Advertisement - Login to hide

Weather


0- 5 10 15 20 25 30 35+ Temperature / ° C

Clouds and Precipitation
Forecast for 2017-12-15 18:00 UTC. Updated 37 minutes ago

Ground ~20,000 ft ~40,000 ft Winds

LIRN

Details ICAO LIRN (NAP)
Name Naples Capodichino
Region Italy
Timezone Europe/Rome (UTC+1.0)
Stats Elevation 294 ft / 90 m (AMSL)
Location 40.886032° 14.290783°
Runways 1
Magnetic Variation 3.308° E

METAR

LIRN 151520Z 19015G28KT 160V230 8000 SCT018 BKN030 15/11 Q1004 NOSIG

Decode

TAF

TAF LIRN 151100Z 1512/1612 23015KT 9999 SCT030 BKN050 TEMPO 1512/1524 24016G26KT 4000 SHRA BECMG 1602/1604 29012KT

Decode

Departure Runways

ID Width Length Bearing (true) Bearing (mag) Surface Threshold Offset Overrun Length
06 148 ft / 45 m 8,612 ft / 2,625 m 58.03° 54.72° Asphalt 1,309 ft / 399 m 0 ft / 0 m
24 148 ft / 45 m 8,612 ft / 2,625 m 238.05° 234.74° Asphalt 624 ft / 190 m 0 ft / 0 m

LIME

Details ICAO LIME (BGY)
Name Bergamo Orio Al Serio
Region Italy
Timezone Europe/Rome (UTC+1.0)
Stats Elevation 779 ft / 237 m (AMSL)
Location 45.672004° 9.706892°
Runways 2
Magnetic Variation 2.603° E

METAR

LIME 151520Z 26005KT 230V300 5000 BR SCT090 04/02 Q0997 NOSIG

Decode

TAF

TAF LIME 151100Z 1512/1612 VRB05KT 8000 SCT090

Decode

Destination Runways

ID Width Length Bearing (true) Bearing (mag) Surface Threshold Offset Overrun Length
10 148 ft / 45 m 9,897 ft / 3,017 m 104.89° 102.29° Asphalt 312 ft / 95 m 0 ft / 0 m
12 59 ft / 18 m 2,665 ft / 812 m 121.47° 118.87° Asphalt 197 ft / 60 m 0 ft / 0 m
28 148 ft / 45 m 9,897 ft / 3,017 m 284.91° 282.31° Asphalt 712 ft / 217 m 0 ft / 0 m
30 59 ft / 18 m 2,665 ft / 812 m 301.48° 298.88° Asphalt 312 ft / 95 m 0 ft / 0 m

Approach Navaids

Runway Type Ident Frequency Range Bearing (true) Bearing (mag) Slope Elevation
28 Localiser BRM 108.70 MHz 18 nm / 33 km 285.08° 282.48° - 779 ft / 237 m (AMSL)
28 Glidescope BRM 108.70 MHz 10 nm / 19 km 284.90° 282.30° 3.00° 779 ft / 237 m (AMSL)
28 DME BRM 108.70 MHz 18 nm / 33 km - - - 779 ft / 237 m (AMSL)

Popular Alternatives